Rona II — MPKR2 — position and weather

sailwx.info

Track history (hours):
 
Tides and Currents Weather Stations Pressure Air Temp Water Temp Dewpoint Dewpoint Depression Visibility Wind Speed Wind Dir Waves Ship Positions

Rona II

Last reported at 2018-Apr-19 13:55 UTC. Time now 2018-Apr-20 18:42 UTC.
Position N 50°53' W 001°18'.

Length 22 m.

Type: Sailing vessel. MMSI: 232714000.

Date/timePositionNaut miles runAvg speedWind from/ knotsBaromVisibWave heightAir tempDewpointWater temp
2018-Apr-19 13:55N 50°53' W 001°18'0 0.0
2018-Apr-19 13:25N 50°53' W 001°18'0 0.0
2018-Apr-19 12:55N 50°53' W 001°18'0 0.0
2018-Apr-19 12:25N 50°53' W 001°18'0 0.0
2018-Apr-19 11:58N 50°53' W 001°18'0 0.0
2018-Apr-19 11:28N 50°53' W 001°18'0 0.0
2018-Apr-19 10:58N 50°53' W 001°18'0 0.0
2018-Apr-19 10:28N 50°53' W 001°18'0 0.0
2018-Apr-19 09:58N 50°53' W 001°18'  
2018-Apr-15 14:17N 50°53' W 001°18'0 0.0
2018-Apr-15 13:50N 50°53' W 001°18'0 0.0
2018-Apr-15 13:23N 50°53' W 001°18'0 0.0
2018-Apr-15 12:53N 50°53' W 001°18'0 0.1
2018-Apr-15 12:30N 50°53' W 001°18'2 4.0
2018-Apr-15 12:00N 50°51' W 001°19'1 2.8
2018-Apr-15 11:30N 50°49' W 001°17'2 4.5
2018-Apr-15 11:00N 50°48' W 001°14'3 5.1
2018-Apr-15 10:30N 50°46' W 001°12'1 2.2
2018-Apr-15 10:00N 50°46' W 001°14'2 3.0
2018-Apr-15 09:30N 50°46' W 001°16'1 2.1
2018-Apr-15 08:58N 50°46' W 001°18'0 0.0
2018-Apr-15 08:28N 50°46' W 001°18'0 0.0
2018-Apr-15 07:58N 50°46' W 001°18'0 0.0
2018-Apr-15 07:28N 50°46' W 001°18'0 0.0
2018-Apr-15 06:58N 50°46' W 001°18'0 0.0
2018-Apr-15 06:28N 50°46' W 001°18'0 0.0
2018-Apr-15 05:59N 50°46' W 001°18'0 0.0
2018-Apr-15 05:29N 50°46' W 001°18'0 0.0
2018-Apr-15 04:58N 50°46' W 001°18'0 0.0
2018-Apr-15 04:29N 50°46' W 001°18'0 0.0
2018-Apr-15 03:59N 50°46' W 001°18'0 0.0
2018-Apr-15 03:29N 50°46' W 001°18'0 0.0
2018-Apr-15 02:59N 50°46' W 001°18'0 0.0
2018-Apr-15 02:29N 50°46' W 001°18'0 0.0
2018-Apr-15 01:59N 50°46' W 001°18'0 0.0
2018-Apr-15 01:29N 50°46' W 001°18'0 0.0
2018-Apr-15 00:59N 50°46' W 001°18'0 0.0
2018-Apr-15 00:29N 50°46' W 001°18'0 0.0
2018-Apr-14 23:59N 50°46' W 001°18'0 0.0
2018-Apr-14 23:29N 50°46' W 001°18'0 0.0
2018-Apr-14 22:59N 50°46' W 001°18'0 0.0
2018-Apr-14 22:23N 50°46' W 001°18'0 0.0
2018-Apr-14 21:56N 50°46' W 001°18'0 0.0
2018-Apr-14 21:26N 50°46' W 001°18'0 0.0
2018-Apr-14 20:56N 50°46' W 001°18'0 0.0
2018-Apr-14 20:26N 50°46' W 001°18'0 0.0
2018-Apr-14 19:56N 50°46' W 001°18'0 0.0
2018-Apr-14 19:26N 50°46' W 001°18'0 0.0
2018-Apr-14 18:59N 50°46' W 001°18'0 0.0
2018-Apr-14 18:29N 50°46' W 001°18'0 0.0
2018-Apr-14 17:59N 50°46' W 001°18'0 0.0
2018-Apr-14 17:29N 50°46' W 001°18'0 0.0
2018-Apr-14 16:56N 50°46' W 001°18'0 0.0
2018-Apr-14 16:29N 50°46' W 001°18'0 0.0
2018-Apr-14 15:57N 50°46' W 001°18'1 2.1
2018-Apr-14 15:29N 50°46' W 001°16'1 2.6
2018-Apr-14 15:00N 50°46' W 001°14'1 1.9
2018-Apr-14 14:30N 50°47' W 001°15'1 3.0
2018-Apr-14 14:00N 50°47' W 001°17'1 1.7
2018-Apr-14 13:30N 50°46' W 001°18'3 6.2
2018-Apr-14 13:00N 50°49' W 001°18'2 3.6
2018-Apr-14 12:29N 50°51' W 001°19'0 0.0
2018-Apr-14 11:50N 50°51' W 001°19'0 1.0
2018-Apr-14 11:28N 50°52' W 001°19'0 0.5
2018-Apr-14 10:58N 50°51' W 001°19'1 2.3
2018-Apr-14 10:25N 50°53' W 001°18'0 0.0
2018-Apr-14 09:58N 50°53' W 001°18'0 0.0
2018-Apr-14 09:28N 50°53' W 001°18'0 0.0
2018-Apr-13 16:01N 50°53' W 001°18'0 0.0
2018-Apr-13 15:58N 50°53' W 001°18'0 0.0
2018-Apr-13 15:28N 50°53' W 001°18'0 0.0
2018-Apr-13 14:58N 50°53' W 001°18'0 0.0
2018-Apr-13 14:28N 50°53' W 001°18'0 0.0
2018-Apr-13 13:49N 50°53' W 001°18'0 0.0
2018-Apr-13 13:20N 50°53' W 001°18'0 0.0
2018-Apr-13 12:53N 50°53' W 001°18'0 0.0
2018-Apr-13 12:23N 50°53' W 001°18'0 0.0
2018-Apr-13 11:53N 50°53' W 001°18'0 1.0
2018-Apr-13 11:30N 50°52' W 001°18'3 5.5
2018-Apr-13 11:00N 50°49' W 001°18'2 0.0
2018-Apr-11 17:57N 50°47' W 001°18'2 5.4
2018-Apr-11 17:30N 50°46' W 001°22'3 5.4
2018-Apr-11 17:00N 50°44' W 001°25'17 3.4
2018-Apr-11 12:00N 50°41' W 001°51'1 1.2
2018-Apr-11 11:22N 50°40' W 001°52'2 4.3
2018-Apr-11 11:00N 50°39' W 001°52'2 3.7
2018-Apr-11 10:30N 50°39' W 001°55'1 0.8
2018-Apr-11 09:49N 50°39' W 001°56'2 4.5
2018-Apr-11 09:18N 50°41' W 001°57'1 3.8
2018-Apr-11 09:00N 50°42' W 001°57'1 0.2
2018-Apr-11 02:09N 50°43' W 001°59'0 0.0
2018-Apr-11 02:00N 50°43' W 001°59'0 0.0
2018-Apr-11 01:30N 50°43' W 001°59'0 0.0
2018-Apr-10 16:44N 50°43' W 001°59'1 2.4
2018-Apr-10 16:30N 50°42' W 001°59'1 1.7
2018-Apr-10 15:46N 50°41' W 001°57'0 0.0
2018-Apr-10 15:13N 50°41' W 001°57'7 0.3
2018-Apr-09 14:30N 50°38' W 001°48'4 8.7
2018-Apr-09 14:00N 50°35' W 001°54'  
Track history (hours):
 
Tides and Currents Weather Stations Pressure Air Temp Water Temp Dewpoint Dewpoint Depression Visibility Wind Speed Wind Dir Waves Ship Positions

Rona II

Last reported at 2018-Apr-19 13:55 UTC. Time now 2018-Apr-20 18:42 UTC.
Position N 50°53' W 001°18'.

Length 22 m.

Type: Sailing vessel. MMSI: 232714000.

Date/timePositionNaut miles runAvg speedWind from/ knotsBaromVisibWave heightAir tempDewpointWater temp
2018-Apr-19 13:55N 50°53' W 001°18'0 0.0
2018-Apr-19 13:25N 50°53' W 001°18'0 0.0
2018-Apr-19 12:55N 50°53' W 001°18'0 0.0
2018-Apr-19 12:25N 50°53' W 001°18'0 0.0
2018-Apr-19 11:58N 50°53' W 001°18'0 0.0
2018-Apr-19 11:28N 50°53' W 001°18'0 0.0
2018-Apr-19 10:58N 50°53' W 001°18'0 0.0
2018-Apr-19 10:28N 50°53' W 001°18'0 0.0
2018-Apr-19 09:58N 50°53' W 001°18'  
2018-Apr-15 14:17N 50°53' W 001°18'0 0.0
2018-Apr-15 13:50N 50°53' W 001°18'0 0.0
2018-Apr-15 13:23N 50°53' W 001°18'0 0.0
2018-Apr-15 12:53N 50°53' W 001°18'0 0.1
2018-Apr-15 12:30N 50°53' W 001°18'2 4.0
2018-Apr-15 12:00N 50°51' W 001°19'1 2.8
2018-Apr-15 11:30N 50°49' W 001°17'2 4.5
2018-Apr-15 11:00N 50°48' W 001°14'3 5.1
2018-Apr-15 10:30N 50°46' W 001°12'1 2.2
2018-Apr-15 10:00N 50°46' W 001°14'2 3.0
2018-Apr-15 09:30N 50°46' W 001°16'1 2.1
2018-Apr-15 08:58N 50°46' W 001°18'0 0.0
2018-Apr-15 08:28N 50°46' W 001°18'0 0.0
2018-Apr-15 07:58N 50°46' W 001°18'0 0.0
2018-Apr-15 07:28N 50°46' W 001°18'0 0.0
2018-Apr-15 06:58N 50°46' W 001°18'0 0.0
2018-Apr-15 06:28N 50°46' W 001°18'0 0.0
2018-Apr-15 05:59N 50°46' W 001°18'0 0.0
2018-Apr-15 05:29N 50°46' W 001°18'0 0.0
2018-Apr-15 04:58N 50°46' W 001°18'0 0.0
2018-Apr-15 04:29N 50°46' W 001°18'0 0.0
2018-Apr-15 03:59N 50°46' W 001°18'0 0.0
2018-Apr-15 03:29N 50°46' W 001°18'0 0.0
2018-Apr-15 02:59N 50°46' W 001°18'0 0.0
2018-Apr-15 02:29N 50°46' W 001°18'0 0.0
2018-Apr-15 01:59N 50°46' W 001°18'0 0.0
2018-Apr-15 01:29N 50°46' W 001°18'0 0.0
2018-Apr-15 00:59N 50°46' W 001°18'0 0.0
2018-Apr-15 00:29N 50°46' W 001°18'0 0.0
2018-Apr-14 23:59N 50°46' W 001°18'0 0.0
2018-Apr-14 23:29N 50°46' W 001°18'0 0.0
2018-Apr-14 22:59N 50°46' W 001°18'0 0.0
2018-Apr-14 22:23N 50°46' W 001°18'0 0.0
2018-Apr-14 21:56N 50°46' W 001°18'0 0.0
2018-Apr-14 21:26N 50°46' W 001°18'0 0.0
2018-Apr-14 20:56N 50°46' W 001°18'0 0.0
2018-Apr-14 20:26N 50°46' W 001°18'0 0.0
2018-Apr-14 19:56N 50°46' W 001°18'0 0.0
2018-Apr-14 19:26N 50°46' W 001°18'0 0.0
2018-Apr-14 18:59N 50°46' W 001°18'0 0.0
2018-Apr-14 18:29N 50°46' W 001°18'0 0.0
2018-Apr-14 17:59N 50°46' W 001°18'0 0.0
2018-Apr-14 17:29N 50°46' W 001°18'0 0.0
2018-Apr-14 16:56N 50°46' W 001°18'0 0.0
2018-Apr-14 16:29N 50°46' W 001°18'0 0.0
2018-Apr-14 15:57N 50°46' W 001°18'1 2.1
2018-Apr-14 15:29N 50°46' W 001°16'1 2.6
2018-Apr-14 15:00N 50°46' W 001°14'1 1.9
2018-Apr-14 14:30N 50°47' W 001°15'1 3.0
2018-Apr-14 14:00N 50°47' W 001°17'1 1.7
2018-Apr-14 13:30N 50°46' W 001°18'3 6.2
2018-Apr-14 13:00N 50°49' W 001°18'2 3.6
2018-Apr-14 12:29N 50°51' W 001°19'0 0.0
2018-Apr-14 11:50N 50°51' W 001°19'0 1.0
2018-Apr-14 11:28N 50°52' W 001°19'0 0.5
2018-Apr-14 10:58N 50°51' W 001°19'1 2.3
2018-Apr-14 10:25N 50°53' W 001°18'0 0.0
2018-Apr-14 09:58N 50°53' W 001°18'0 0.0
2018-Apr-14 09:28N 50°53' W 001°18'0 0.0
2018-Apr-13 16:01N 50°53' W 001°18'0 0.0
2018-Apr-13 15:58N 50°53' W 001°18'0 0.0
2018-Apr-13 15:28N 50°53' W 001°18'0 0.0
2018-Apr-13 14:58N 50°53' W 001°18'0 0.0
2018-Apr-13 14:28N 50°53' W 001°18'0 0.0
2018-Apr-13 13:49N 50°53' W 001°18'0 0.0
2018-Apr-13 13:20N 50°53' W 001°18'0 0.0
2018-Apr-13 12:53N 50°53' W 001°18'0 0.0
2018-Apr-13 12:23N 50°53' W 001°18'0 0.0
2018-Apr-13 11:53N 50°53' W 001°18'0 1.0
2018-Apr-13 11:30N 50°52' W 001°18'3 5.5
2018-Apr-13 11:00N 50°49' W 001°18'2 0.0
2018-Apr-11 17:57N 50°47' W 001°18'2 5.4
2018-Apr-11 17:30N 50°46' W 001°22'3 5.4
2018-Apr-11 17:00N 50°44' W 001°25'17 3.4
2018-Apr-11 12:00N 50°41' W 001°51'1 1.2
2018-Apr-11 11:22N 50°40' W 001°52'2 4.3
2018-Apr-11 11:00N 50°39' W 001°52'2 3.7
2018-Apr-11 10:30N 50°39' W 001°55'1 0.8
2018-Apr-11 09:49N 50°39' W 001°56'2 4.5
2018-Apr-11 09:18N 50°41' W 001°57'1 3.8
2018-Apr-11 09:00N 50°42' W 001°57'1 0.2
2018-Apr-11 02:09N 50°43' W 001°59'0 0.0
2018-Apr-11 02:00N 50°43' W 001°59'0 0.0
2018-Apr-11 01:30N 50°43' W 001°59'0 0.0
2018-Apr-10 16:44N 50°43' W 001°59'1 2.4
2018-Apr-10 16:30N 50°42' W 001°59'1 1.7
2018-Apr-10 15:46N 50°41' W 001°57'0 0.0
2018-Apr-10 15:13N 50°41' W 001°57'7 0.3
2018-Apr-09 14:30N 50°38' W 001°48'4 8.7
2018-Apr-09 14:00N 50°35' W 001°54'  

Dump ship's entire track history